createdAt,value
2017-12-19T00:01:18.973Z,-1.60
2017-12-19T00:03:46.425Z,-1.60
2017-12-19T00:06:13.895Z,-1.60
2017-12-19T00:08:41.341Z,-1.70
2017-12-19T00:11:08.792Z,-1.80
2017-12-19T00:13:36.254Z,-1.70
2017-12-19T00:16:03.766Z,-1.70
2017-12-19T00:18:31.990Z,-1.90
2017-12-19T00:20:59.456Z,-1.90
2017-12-19T00:23:27.696Z,-1.80
2017-12-19T00:25:55.149Z,-1.80
2017-12-19T00:28:22.614Z,-1.70
2017-12-19T00:30:50.085Z,-1.80
2017-12-19T00:33:17.540Z,-1.90
2017-12-19T00:35:45.001Z,-1.90
2017-12-19T00:38:13.457Z,-1.90
2017-12-19T00:40:41.696Z,-1.80
2017-12-19T00:43:09.178Z,-1.80
2017-12-19T00:45:37.391Z,-1.70
2017-12-19T00:48:04.871Z,-1.70
2017-12-19T00:50:32.344Z,-1.70
2017-12-19T00:52:59.815Z,-1.70
2017-12-19T00:55:27.275Z,-1.50
2017-12-19T00:57:55.494Z,-1.30
2017-12-19T01:00:22.956Z,-1.30
2017-12-19T01:02:50.417Z,-1.40
2017-12-19T01:05:17.906Z,-1.30
2017-12-19T01:07:45.352Z,-1.30
2017-12-19T01:10:12.804Z,-1.30
2017-12-19T01:12:40.277Z,-1.30
2017-12-19T01:15:07.732Z,-1.30
2017-12-19T01:17:35.195Z,-1.30
2017-12-19T01:20:03.426Z,-1.30
2017-12-19T01:22:30.885Z,-1.30
2017-12-19T01:24:58.376Z,-1.30
2017-12-19T01:27:25.834Z,-1.30
2017-12-19T01:29:53.298Z,-1.30
2017-12-19T01:32:21.526Z,-1.40
2017-12-19T01:34:48.995Z,-1.40
2017-12-19T01:37:16.463Z,-1.40
2017-12-19T01:39:43.918Z,-1.30
2017-12-19T01:42:12.208Z,-1.30
2017-12-19T01:44:39.668Z,-1.20
2017-12-19T01:47:07.132Z,-1.10
2017-12-19T01:49:34.586Z,-1.10
2017-12-19T01:52:02.049Z,-1.10
2017-12-19T01:54:30.272Z,-1.30
2017-12-19T01:56:57.765Z,-1.30
2017-12-19T01:59:25.218Z,-1.30
2017-12-19T02:01:52.671Z,-1.40
2017-12-19T02:04:20.178Z,-1.40
2017-12-19T02:06:47.594Z,-1.40
2017-12-19T02:09:15.053Z,-1.30
2017-12-19T02:11:42.523Z,-1.30
2017-12-19T02:14:10.748Z,-1.20
2017-12-19T02:16:42.031Z,-1.20
2017-12-19T02:19:09.480Z,-1.10
2017-12-19T02:21:36.940Z,-1.00
2017-12-19T02:24:04.399Z,-1.00
2017-12-19T02:26:31.862Z,-1.00
2017-12-19T02:28:59.319Z,-1.00
2017-12-19T02:31:26.778Z,-0.90
2017-12-19T02:33:55.016Z,-0.90
2017-12-19T02:36:22.488Z,-1.00
2017-12-19T02:38:49.931Z,-0.90
2017-12-19T02:41:17.397Z,-0.90
2017-12-19T02:43:44.850Z,-0.90
2017-12-19T02:46:12.310Z,-0.90
2017-12-19T02:48:39.772Z,-0.90
2017-12-19T02:51:07.224Z,-0.90
2017-12-19T02:53:34.688Z,-0.90
2017-12-19T02:56:02.155Z,-0.90
2017-12-19T02:58:29.626Z,-1.00
2017-12-19T03:00:57.857Z,-1.00
2017-12-19T03:03:25.323Z,-1.10
2017-12-19T03:05:52.786Z,-1.10
2017-12-19T03:08:20.253Z,-1.10
2017-12-19T03:10:47.714Z,-1.10
2017-12-19T03:13:15.172Z,-1.00
2017-12-19T03:15:42.652Z,-1.00
2017-12-19T03:18:11.248Z,-0.90
2017-12-19T03:20:39.475Z,-0.90
2017-12-19T03:23:06.938Z,-1.00
2017-12-19T03:25:34.410Z,-1.00
2017-12-19T03:28:02.634Z,-1.00
2017-12-19T03:30:30.088Z,-1.00
2017-12-19T03:32:57.554Z,-0.90
2017-12-19T03:35:25.012Z,-0.90
2017-12-19T03:37:52.479Z,-1.00
2017-12-19T03:40:19.930Z,-1.00
2017-12-19T03:42:47.407Z,-0.90
2017-12-19T03:45:14.873Z,-0.80
2017-12-19T03:47:42.344Z,-0.80
2017-12-19T03:50:10.566Z,-0.70
2017-12-19T03:52:38.028Z,-0.70
2017-12-19T03:55:05.501Z,-0.80
2017-12-19T03:57:32.973Z,-0.90
2017-12-19T04:00:00.432Z,-0.90
2017-12-19T04:02:27.897Z,-0.80
2017-12-19T04:04:56.127Z,-0.90
2017-12-19T04:07:23.590Z,-0.90
2017-12-19T04:09:51.053Z,-0.90
2017-12-19T04:12:18.517Z,-0.90
2017-12-19T04:14:45.983Z,-0.90
2017-12-19T04:17:13.448Z,-0.80
2017-12-19T04:19:40.914Z,-0.70
2017-12-19T04:22:09.147Z,-0.70
2017-12-19T04:24:36.605Z,-0.70
2017-12-19T04:27:04.842Z,-0.70
2017-12-19T04:29:33.065Z,-0.70
2017-12-19T04:32:00.530Z,-0.70
2017-12-19T04:34:27.988Z,-0.70
2017-12-19T04:36:55.459Z,-0.70
2017-12-19T04:39:22.931Z,-0.70
2017-12-19T04:41:51.158Z,-0.80
2017-12-19T04:44:18.625Z,-0.80
2017-12-19T04:46:46.082Z,-0.70
2017-12-19T04:49:13.541Z,-0.70
2017-12-19T04:51:40.993Z,-0.70
2017-12-19T04:54:08.502Z,-0.70
2017-12-19T04:56:36.712Z,-0.50
2017-12-19T04:59:04.170Z,-0.50
2017-12-19T05:01:31.639Z,-0.50
2017-12-19T05:03:59.097Z,-0.50
2017-12-19T05:06:26.592Z,-0.50
2017-12-19T05:08:54.041Z,-0.50
2017-12-19T05:11:22.283Z,-0.50
2017-12-19T05:13:49.738Z,-0.60
2017-12-19T05:16:17.210Z,-0.60
2017-12-19T05:18:44.689Z,-0.70
2017-12-19T05:21:12.187Z,-0.80
2017-12-19T05:23:39.646Z,-0.70
2017-12-19T05:26:07.108Z,-0.70
2017-12-19T05:28:34.576Z,-0.70
2017-12-19T05:31:02.040Z,-0.60
2017-12-19T05:33:29.512Z,-0.60
2017-12-19T05:35:56.975Z,-0.60
2017-12-19T05:38:24.453Z,-0.70
2017-12-19T05:40:52.679Z,-0.60
2017-12-19T05:43:20.147Z,-0.70
2017-12-19T05:45:48.369Z,-0.60
2017-12-19T05:48:15.834Z,-0.60
2017-12-19T05:50:43.299Z,-0.60
2017-12-19T05:53:10.762Z,-0.70
2017-12-19T05:55:38.218Z,-0.70
2017-12-19T05:58:05.678Z,-0.80
2017-12-19T06:00:33.143Z,-0.80
2017-12-19T06:03:00.612Z,-0.80
2017-12-19T06:05:28.097Z,-0.70
2017-12-19T06:07:55.552Z,-0.70
2017-12-19T06:10:23.022Z,-0.70
2017-12-19T06:12:51.261Z,-0.60
2017-12-19T06:15:18.731Z,-0.60
2017-12-19T06:17:46.196Z,-0.50
2017-12-19T06:20:13.663Z,-0.50
2017-12-19T06:22:41.898Z,-0.60
2017-12-19T06:25:09.372Z,-0.70
2017-12-19T06:27:36.855Z,-0.70
2017-12-19T06:30:04.344Z,-0.70
2017-12-19T06:32:31.820Z,-0.60
2017-12-19T06:34:59.296Z,-0.50
2017-12-19T06:37:26.777Z,-0.60
2017-12-19T06:39:54.270Z,-0.50
2017-12-19T06:42:21.810Z,-0.50
2017-12-19T06:44:49.340Z,-0.60
2017-12-19T06:47:16.851Z,-0.70
2017-12-19T06:49:44.352Z,-0.70
2017-12-19T06:52:11.905Z,-0.60
2017-12-19T06:54:39.403Z,-0.70
2017-12-19T06:57:07.687Z,-0.70
2017-12-19T06:59:35.202Z,-0.70
2017-12-19T07:02:02.724Z,-0.70
2017-12-19T07:04:30.236Z,-0.70
2017-12-19T07:06:57.766Z,-0.70
2017-12-19T07:09:25.319Z,-0.70
2017-12-19T07:11:52.826Z,-0.70
2017-12-19T07:14:21.120Z,-0.90
2017-12-19T07:16:48.613Z,-0.80
2017-12-19T07:19:16.125Z,-0.90
2017-12-19T07:21:44.409Z,-0.80
2017-12-19T07:24:11.918Z,-0.80
2017-12-19T07:26:39.447Z,-0.80
2017-12-19T07:29:06.973Z,-0.80
2017-12-19T07:31:35.226Z,-0.80
2017-12-19T07:34:02.702Z,-0.80
2017-12-19T07:36:30.943Z,-0.80
2017-12-19T07:38:58.443Z,-0.80
2017-12-19T07:41:26.728Z,-0.60
2017-12-19T07:43:54.280Z,-0.70
2017-12-19T07:46:21.797Z,-0.70
2017-12-19T07:48:49.282Z,-0.70
2017-12-19T07:51:17.546Z,-0.60
2017-12-19T07:53:45.801Z,-0.60
2017-12-19T07:56:13.282Z,-0.70
2017-12-19T07:58:40.753Z,-0.60
2017-12-19T08:01:09.006Z,-0.50
2017-12-19T08:03:36.485Z,-0.50
2017-12-19T08:06:04.733Z,-0.50
2017-12-19T08:08:32.218Z,-0.50
2017-12-19T08:11:00.464Z,-0.40
2017-12-19T08:13:27.922Z,-0.40
2017-12-19T08:15:55.404Z,-0.40
2017-12-19T08:18:23.676Z,-0.30
2017-12-19T08:20:51.126Z,-0.30
2017-12-19T08:23:18.585Z,-0.30
2017-12-19T08:25:46.830Z,-0.10
2017-12-19T08:28:14.287Z,-0.10
2017-12-19T08:30:41.751Z,0.00
2017-12-19T08:33:09.215Z,0.00
2017-12-19T08:35:36.669Z,-0.10
2017-12-19T08:38:04.143Z,0.00
2017-12-19T08:40:32.412Z,0.10
2017-12-19T08:42:59.870Z,0.10
2017-12-19T08:45:28.094Z,0.00
2017-12-19T08:47:55.567Z,0.00
2017-12-19T08:50:23.013Z,-0.10
2017-12-19T08:52:50.480Z,0.00
2017-12-19T08:55:17.937Z,0.00
2017-12-19T08:57:45.406Z,0.10
2017-12-19T09:00:12.859Z,0.10
2017-12-19T09:02:40.322Z,0.10
2017-12-19T09:05:07.773Z,0.20
2017-12-19T09:07:35.236Z,0.20
2017-12-19T09:10:02.695Z,0.20
2017-12-19T09:12:30.149Z,0.30
2017-12-19T09:14:57.606Z,0.30
2017-12-19T09:17:25.129Z,0.20
2017-12-19T09:19:52.527Z,0.30
2017-12-19T09:22:19.982Z,0.40
2017-12-19T09:24:47.450Z,0.40
2017-12-19T09:27:14.898Z,0.30
2017-12-19T09:29:42.353Z,0.30
2017-12-19T09:32:09.802Z,0.30
2017-12-19T09:34:37.269Z,0.30
2017-12-19T09:37:04.716Z,0.10
2017-12-19T09:39:32.190Z,0.20
2017-12-19T09:41:59.664Z,0.30
2017-12-19T09:44:27.109Z,0.20
2017-12-19T09:46:55.327Z,0.20
2017-12-19T09:49:22.788Z,0.20
2017-12-19T09:51:50.247Z,0.30
2017-12-19T09:54:17.707Z,0.40
2017-12-19T09:56:45.164Z,0.50
2017-12-19T09:59:12.632Z,0.40
2017-12-19T10:01:40.101Z,0.20
2017-12-19T10:04:07.554Z,0.30
2017-12-19T10:06:35.020Z,0.30
2017-12-19T10:09:02.496Z,0.40
2017-12-19T10:11:30.718Z,0.40
2017-12-19T10:13:58.187Z,0.40
2017-12-19T10:16:25.639Z,0.50
2017-12-19T10:18:53.107Z,0.50
2017-12-19T10:21:20.567Z,0.50
2017-12-19T10:23:48.034Z,0.60
2017-12-19T10:26:15.490Z,0.80
2017-12-19T10:28:42.988Z,0.90
2017-12-19T10:31:11.211Z,1.00
2017-12-19T10:33:38.667Z,1.00
2017-12-19T10:36:06.134Z,0.90
2017-12-19T10:38:33.653Z,0.90
2017-12-19T10:41:01.091Z,0.80
2017-12-19T10:43:29.342Z,0.90
2017-12-19T10:45:56.792Z,0.90
2017-12-19T10:48:24.256Z,0.90
2017-12-19T10:50:51.732Z,0.90
2017-12-19T10:53:20.548Z,0.80
2017-12-19T10:55:48.217Z,0.90
2017-12-19T10:58:15.707Z,0.90
2017-12-19T11:00:43.222Z,0.90
2017-12-19T11:03:10.732Z,0.90
2017-12-19T11:05:38.210Z,1.00
2017-12-19T11:08:06.433Z,1.10
2017-12-19T11:10:33.939Z,1.10
2017-12-19T11:13:02.149Z,1.10
2017-12-19T11:15:29.604Z,1.10
2017-12-19T11:17:57.046Z,1.20
2017-12-19T11:20:24.510Z,1.20
2017-12-19T11:22:51.948Z,1.20
2017-12-19T11:25:19.403Z,1.10
2017-12-19T11:27:47.617Z,1.20
2017-12-19T11:30:15.069Z,1.20
2017-12-19T11:32:42.517Z,1.20
2017-12-19T11:35:09.978Z,1.20
2017-12-19T11:37:37.427Z,1.40
2017-12-19T11:40:04.874Z,1.40
2017-12-19T11:42:32.328Z,1.30
2017-12-19T11:44:59.781Z,1.10
2017-12-19T11:47:27.237Z,1.20
2017-12-19T11:49:55.450Z,1.10
2017-12-19T11:52:22.895Z,1.10
2017-12-19T11:54:50.407Z,1.30
2017-12-19T11:57:17.810Z,1.20
2017-12-19T11:59:45.265Z,1.20
2017-12-19T12:02:12.781Z,1.20
2017-12-19T12:04:40.193Z,1.20
2017-12-19T12:07:07.661Z,1.30
2017-12-19T12:09:35.109Z,1.40
2017-12-19T12:12:02.553Z,1.30
2017-12-19T12:14:30.019Z,1.40
2017-12-19T12:16:57.468Z,1.30
2017-12-19T12:19:24.926Z,1.20
2017-12-19T12:21:52.375Z,1.30
2017-12-19T12:24:19.834Z,1.40
2017-12-19T12:26:47.288Z,1.40
2017-12-19T12:29:14.746Z,1.30
2017-12-19T12:31:42.194Z,1.40
2017-12-19T12:34:09.653Z,1.50
2017-12-19T12:36:37.105Z,1.60
2017-12-19T12:39:04.619Z,1.60
2017-12-19T12:41:32.084Z,1.70
2017-12-19T12:43:59.531Z,1.50
2017-12-19T12:46:26.972Z,1.40
2017-12-19T12:48:54.434Z,1.40
2017-12-19T12:51:21.899Z,1.40
2017-12-19T12:53:49.349Z,1.50
2017-12-19T12:56:16.801Z,1.50
2017-12-19T12:58:44.248Z,1.60
2017-12-19T13:01:11.708Z,1.50
2017-12-19T13:03:39.165Z,1.30
2017-12-19T13:06:06.630Z,1.30
2017-12-19T13:08:34.082Z,1.40
2017-12-19T13:11:01.525Z,1.40
2017-12-19T13:13:28.986Z,1.60
2017-12-19T13:15:56.440Z,1.60
2017-12-19T13:18:23.893Z,1.50
2017-12-19T13:20:51.338Z,1.60
2017-12-19T13:23:18.788Z,1.40
2017-12-19T13:25:46.246Z,1.50
2017-12-19T13:28:13.694Z,1.60
2017-12-19T13:30:41.155Z,1.70
2017-12-19T13:33:08.601Z,1.70
2017-12-19T13:35:36.057Z,1.70
2017-12-19T13:38:03.506Z,1.60
2017-12-19T13:40:30.957Z,1.50
2017-12-19T13:42:58.412Z,1.60
2017-12-19T13:45:26.629Z,1.60
2017-12-19T13:47:54.081Z,1.60
2017-12-19T13:50:21.528Z,1.70
2017-12-19T13:52:48.981Z,1.60
2017-12-19T13:55:16.442Z,1.50
2017-12-19T13:57:43.890Z,1.60
2017-12-19T14:00:11.362Z,1.60
2017-12-19T14:02:38.832Z,1.50
2017-12-19T14:05:06.333Z,1.50
2017-12-19T14:07:34.560Z,1.50
2017-12-19T14:10:02.055Z,1.50
2017-12-19T14:12:29.536Z,1.50
2017-12-19T14:14:57.018Z,1.50
2017-12-19T14:17:24.505Z,1.50
2017-12-19T14:19:51.993Z,1.50
2017-12-19T14:22:20.242Z,1.40
2017-12-19T14:24:47.771Z,1.40
2017-12-19T14:27:15.250Z,1.40
2017-12-19T14:29:42.726Z,1.40
2017-12-19T14:32:10.199Z,1.40
2017-12-19T14:34:37.674Z,1.40
2017-12-19T14:37:05.170Z,1.40
2017-12-19T14:39:32.658Z,1.40
2017-12-19T14:42:00.114Z,1.40
2017-12-19T14:44:27.576Z,1.40
2017-12-19T14:46:55.798Z,1.40
2017-12-19T14:49:23.264Z,1.40
2017-12-19T14:51:50.717Z,1.40
2017-12-19T14:54:18.181Z,1.40
2017-12-19T14:56:45.633Z,1.40
2017-12-19T14:59:13.096Z,1.30
2017-12-19T15:01:40.558Z,1.30
2017-12-19T15:04:08.012Z,1.30
2017-12-19T15:06:35.452Z,1.30
2017-12-19T15:09:02.930Z,1.30
2017-12-19T15:11:30.401Z,1.30
2017-12-19T15:13:57.891Z,1.20
2017-12-19T15:16:26.136Z,1.20
2017-12-19T15:18:53.599Z,1.20
2017-12-19T15:21:21.086Z,1.30
2017-12-19T15:23:48.559Z,1.20
2017-12-19T15:26:16.034Z,1.20
2017-12-19T15:28:43.498Z,1.20
2017-12-19T15:31:10.976Z,1.20
2017-12-19T15:33:38.447Z,1.20
2017-12-19T15:36:06.710Z,1.20
2017-12-19T15:38:34.178Z,1.20
2017-12-19T15:41:01.694Z,1.10
2017-12-19T15:43:29.140Z,1.10
2017-12-19T15:45:56.591Z,1.10
2017-12-19T15:48:24.050Z,1.20
2017-12-19T15:50:51.517Z,1.20
2017-12-19T15:53:18.962Z,1.20
2017-12-19T15:55:46.413Z,1.20
2017-12-19T15:58:14.793Z,1.20
2017-12-19T16:00:42.223Z,1.20
2017-12-19T16:03:10.467Z,1.20
2017-12-19T16:05:37.948Z,1.10
2017-12-19T16:08:05.409Z,1.10
2017-12-19T16:10:33.628Z,1.20
2017-12-19T16:13:01.129Z,1.10
2017-12-19T16:15:28.569Z,1.10
2017-12-19T16:17:56.026Z,1.20
2017-12-19T16:20:23.495Z,1.20
2017-12-19T16:22:50.938Z,1.20
2017-12-19T16:25:18.396Z,1.20
2017-12-19T16:27:45.844Z,1.20
2017-12-19T16:30:13.300Z,1.20
2017-12-19T16:32:40.753Z,1.20
2017-12-19T16:35:08.213Z,1.20
2017-12-19T16:37:35.665Z,1.20
2017-12-19T16:40:03.133Z,1.20
2017-12-19T16:42:30.627Z,1.20
2017-12-19T16:44:58.877Z,1.20
2017-12-19T16:47:26.313Z,1.20
2017-12-19T16:49:54.551Z,1.20
2017-12-19T16:52:21.997Z,1.20
2017-12-19T16:54:49.500Z,1.20
2017-12-19T16:57:16.940Z,1.20
2017-12-19T16:59:44.420Z,1.20
2017-12-19T17:02:11.894Z,1.20
2017-12-19T17:04:39.341Z,1.20
2017-12-19T17:07:06.789Z,1.20
2017-12-19T17:09:34.253Z,1.20
2017-12-19T17:12:01.706Z,1.20
2017-12-19T17:14:29.169Z,1.20
2017-12-19T17:16:56.621Z,1.20
2017-12-19T17:19:24.078Z,1.20
2017-12-19T17:21:51.533Z,1.20
2017-12-19T17:24:19.001Z,1.20
2017-12-19T17:26:46.457Z,1.20
2017-12-19T17:29:13.915Z,1.20
2017-12-19T17:31:41.376Z,1.20
2017-12-19T17:34:08.882Z,1.20
2017-12-19T17:36:36.370Z,1.20
2017-12-19T17:39:03.865Z,1.20
2017-12-19T17:41:32.123Z,1.20
2017-12-19T17:43:59.569Z,1.20
2017-12-19T17:46:27.082Z,1.20
2017-12-19T17:48:54.526Z,1.10
2017-12-19T17:51:21.972Z,1.10
2017-12-19T17:53:50.200Z,1.10
2017-12-19T17:56:17.653Z,1.10
2017-12-19T17:58:45.156Z,1.10
2017-12-19T18:01:12.667Z,1.10
2017-12-19T18:03:40.267Z,1.10
2017-12-19T18:06:07.712Z,1.10
2017-12-19T18:08:35.176Z,1.10
2017-12-19T18:11:03.442Z,1.10
2017-12-19T18:13:30.918Z,1.10
2017-12-19T18:15:58.388Z,1.10
2017-12-19T18:18:26.694Z,1.10
2017-12-19T18:20:54.176Z,1.10
2017-12-19T18:23:21.667Z,1.10
2017-12-19T18:25:49.890Z,1.10
2017-12-19T18:28:17.399Z,1.10
2017-12-19T18:30:44.906Z,1.10
2017-12-19T18:33:12.344Z,1.10
2017-12-19T18:35:39.877Z,1.00
2017-12-19T18:38:08.077Z,1.10
2017-12-19T18:40:35.587Z,1.10
2017-12-19T18:43:03.083Z,1.10
2017-12-19T18:45:30.574Z,1.00
2017-12-19T18:47:58.069Z,1.10
2017-12-19T18:50:26.972Z,1.00
2017-12-19T18:52:54.619Z,1.00
2017-12-19T18:55:22.934Z,1.00
2017-12-19T18:57:50.441Z,1.00
2017-12-19T19:00:17.972Z,1.00
2017-12-19T19:02:45.461Z,1.00
2017-12-19T19:05:12.986Z,1.00
2017-12-19T19:07:40.436Z,1.00
2017-12-19T19:10:08.175Z,1.00
2017-12-19T19:12:36.647Z,1.00
2017-12-19T19:15:04.234Z,0.90
2017-12-19T19:17:31.783Z,1.00
2017-12-19T19:19:59.314Z,1.00
2017-12-19T19:22:26.814Z,1.00
2017-12-19T19:24:54.329Z,1.00
2017-12-19T19:27:21.826Z,0.90
2017-12-19T19:29:49.328Z,0.90
2017-12-19T19:32:16.838Z,0.90
2017-12-19T19:34:44.327Z,1.00
2017-12-19T19:37:11.778Z,0.90
2017-12-19T19:39:40.045Z,1.00
2017-12-19T19:42:07.552Z,0.90
2017-12-19T19:44:35.027Z,1.00
2017-12-19T19:47:03.297Z,0.90
2017-12-19T19:49:31.504Z,0.90
2017-12-19T19:51:59.021Z,0.90
2017-12-19T19:54:26.511Z,0.90
2017-12-19T19:56:54.049Z,0.90
2017-12-19T19:59:22.302Z,0.90
2017-12-19T20:01:49.788Z,0.90
2017-12-19T20:04:18.007Z,1.00
2017-12-19T20:06:45.532Z,0.90
2017-12-19T20:09:13.032Z,1.00
2017-12-19T20:11:41.301Z,1.00
2017-12-19T20:14:08.807Z,1.00
2017-12-19T20:16:37.050Z,1.00
2017-12-19T20:19:04.549Z,1.00
2017-12-19T20:21:32.809Z,1.00
2017-12-19T20:24:01.094Z,1.00
2017-12-19T20:26:29.352Z,1.00
2017-12-19T20:28:56.852Z,1.00
2017-12-19T20:31:24.340Z,1.00
2017-12-19T20:33:51.839Z,1.00
2017-12-19T20:36:20.104Z,1.00
2017-12-19T20:38:47.589Z,1.00
2017-12-19T20:41:15.087Z,1.00
2017-12-19T20:43:42.581Z,1.00
2017-12-19T20:46:10.860Z,1.00
2017-12-19T20:48:38.396Z,1.00
2017-12-19T20:51:05.900Z,1.00
2017-12-19T20:53:33.387Z,1.00
2017-12-19T20:56:00.894Z,1.00
2017-12-19T20:58:29.109Z,1.00
2017-12-19T21:00:56.662Z,1.00
2017-12-19T21:03:24.173Z,1.00
2017-12-19T21:05:51.674Z,1.10
2017-12-19T21:08:19.176Z,1.10
2017-12-19T21:10:46.662Z,1.10
2017-12-19T21:13:14.937Z,1.10
2017-12-19T21:15:43.198Z,1.10
2017-12-19T21:18:11.812Z,1.10
2017-12-19T21:20:39.296Z,1.10
2017-12-19T21:23:06.794Z,1.10
2017-12-19T21:25:34.292Z,1.10
2017-12-19T21:28:01.753Z,1.10
2017-12-19T21:30:29.249Z,1.10
2017-12-19T21:32:56.745Z,1.10
2017-12-19T21:35:25.004Z,1.10
2017-12-19T21:37:52.500Z,1.10
2017-12-19T21:40:20.003Z,1.10
2017-12-19T21:42:47.532Z,1.10
2017-12-19T21:45:15.026Z,1.10
2017-12-19T21:47:42.520Z,1.10
2017-12-19T21:50:09.964Z,1.10
2017-12-19T21:52:37.469Z,1.10
2017-12-19T21:55:04.921Z,1.10
2017-12-19T21:57:32.435Z,1.10
2017-12-19T22:00:00.709Z,1.20
2017-12-19T22:02:28.967Z,1.20
2017-12-19T22:04:56.474Z,1.10
2017-12-19T22:07:23.966Z,1.20
2017-12-19T22:09:51.470Z,1.20
2017-12-19T22:12:19.679Z,1.20
2017-12-19T22:14:47.198Z,1.10
2017-12-19T22:17:15.452Z,1.20
2017-12-19T22:19:42.950Z,1.20
2017-12-19T22:22:10.455Z,1.20
2017-12-19T22:24:37.953Z,1.20
2017-12-19T22:27:05.398Z,1.20
2017-12-19T22:29:33.611Z,1.20
2017-12-19T22:32:01.115Z,1.20
2017-12-19T22:34:28.635Z,1.20
2017-12-19T22:36:56.948Z,1.20
2017-12-19T22:39:24.472Z,1.20
2017-12-19T22:41:51.987Z,1.20
2017-12-19T22:44:19.428Z,1.30
2017-12-19T22:46:47.041Z,1.20
2017-12-19T22:49:14.514Z,1.30
2017-12-19T22:51:41.989Z,1.30
2017-12-19T22:54:09.490Z,1.30
2017-12-19T22:56:36.943Z,1.30
2017-12-19T22:59:04.535Z,1.30
2017-12-19T23:01:32.033Z,1.30
2017-12-19T23:04:00.287Z,1.30
2017-12-19T23:06:27.783Z,1.30
2017-12-19T23:08:55.281Z,1.30
2017-12-19T23:11:22.781Z,1.30
2017-12-19T23:13:50.992Z,1.30
2017-12-19T23:16:18.515Z,1.30
2017-12-19T23:18:46.776Z,1.30
2017-12-19T23:21:14.281Z,1.30
2017-12-19T23:23:41.853Z,1.40
2017-12-19T23:26:09.435Z,1.30
2017-12-19T23:28:37.001Z,1.40
2017-12-19T23:31:04.529Z,1.40
2017-12-19T23:33:32.036Z,1.30
2017-12-19T23:35:59.612Z,1.30
2017-12-19T23:38:27.261Z,1.40
2017-12-19T23:40:54.727Z,1.40
2017-12-19T23:43:22.940Z,1.40
2017-12-19T23:45:50.402Z,1.30
2017-12-19T23:48:17.864Z,1.40
2017-12-19T23:50:45.307Z,1.40
2017-12-19T23:53:12.880Z,1.40
2017-12-19T23:55:43.348Z,1.40
2017-12-19T23:58:15.210Z,1.40
